Mexico, Kentucky
Current Conditions -  °F | °C
As of 4:55 PM on Saturday 25 Oct 2014 (Local Time) from K5M9 Reporting Station
Clear Clear  
Wind Chill: 76°   Ceiling: Unl
Heat Index: 78°   Visibility: 10mi
Dew Point: 61°   Wind: 6mph
Humidity: 59%   Direction: 280°W
Pressure: 30"   Gusts: NA
Location:  37.3359°N, 88.1049°W
Report Text: K5M9 252155Z AUTO 28005KT 10SM CLR 25/16 A3000 RMK AO2 T02460160
Loading
Personal Weather Stations






























Interactive Weather Map
Tropical Storm Tracking
New forecast layout! Learn more

10-Day Weather Forecast

Advertisements
Track Severe Weather on mobile